sensor_id;sensor_type;location;lat;lon;timestamp;temperature;humidity
3986;DHT22;2007;48.750;9.278;2023-08-12T00:01:02;23.40;52.40
3986;DHT22;2007;48.750;9.278;2023-08-12T00:03:30;23.40;52.40
3986;DHT22;2007;48.750;9.278;2023-08-12T00:05:58;23.40;52.40
3986;DHT22;2007;48.750;9.278;2023-08-12T00:08:28;23.40;52.30
3986;DHT22;2007;48.750;9.278;2023-08-12T00:10:58;23.40;52.30
3986;DHT22;2007;48.750;9.278;2023-08-12T00:13:26;23.40;52.30
3986;DHT22;2007;48.750;9.278;2023-08-12T00:15:53;23.40;52.30
3986;DHT22;2007;48.750;9.278;2023-08-12T00:18:22;23.40;52.40
3986;DHT22;2007;48.750;9.278;2023-08-12T00:20:50;23.40;52.30
3986;DHT22;2007;48.750;9.278;2023-08-12T00:23:18;23.40;52.30
3986;DHT22;2007;48.750;9.278;2023-08-12T00:25:46;23.40;52.30
3986;DHT22;2007;48.750;9.278;2023-08-12T00:28:15;23.40;52.30
3986;DHT22;2007;48.750;9.278;2023-08-12T00:30:43;23.40;52.30
3986;DHT22;2007;48.750;9.278;2023-08-12T00:33:11;23.40;52.30
3986;DHT22;2007;48.750;9.278;2023-08-12T00:35:41;23.40;52.30
3986;DHT22;2007;48.750;9.278;2023-08-12T00:38:09;23.40;52.30
3986;DHT22;2007;48.750;9.278;2023-08-12T00:40:36;23.40;52.30
3986;DHT22;2007;48.750;9.278;2023-08-12T00:43:04;23.40;52.30
3986;DHT22;2007;48.750;9.278;2023-08-12T00:45:34;23.40;52.30
3986;DHT22;2007;48.750;9.278;2023-08-12T00:48:03;23.40;52.30
3986;DHT22;2007;48.750;9.278;2023-08-12T00:50:31;23.40;52.30
3986;DHT22;2007;48.750;9.278;2023-08-12T00:53:00;23.40;52.30
3986;DHT22;2007;48.750;9.278;2023-08-12T00:55:28;23.40;52.30
3986;DHT22;2007;48.750;9.278;2023-08-12T00:57:56;23.40;52.30
3986;DHT22;2007;48.750;9.278;2023-08-12T01:00:24;23.40;52.30
3986;DHT22;2007;48.750;9.278;2023-08-12T01:02:54;23.40;52.30
3986;DHT22;2007;48.750;9.278;2023-08-12T01:05:24;23.40;52.30
3986;DHT22;2007;48.750;9.278;2023-08-12T01:07:52;23.40;52.30
3986;DHT22;2007;48.750;9.278;2023-08-12T01:10:21;23.40;52.30
3986;DHT22;2007;48.750;9.278;2023-08-12T01:12:54;23.40;52.30
3986;DHT22;2007;48.750;9.278;2023-08-12T01:15:25;23.40;52.30
3986;DHT22;2007;48.750;9.278;2023-08-12T01:17:55;23.40;52.30
3986;DHT22;2007;48.750;9.278;2023-08-12T01:20:25;23.40;52.30
3986;DHT22;2007;48.750;9.278;2023-08-12T01:22:57;23.40;52.20
3986;DHT22;2007;48.750;9.278;2023-08-12T01:25:27;23.40;52.20
3986;DHT22;2007;48.750;9.278;2023-08-12T01:27:55;23.40;52.30
3986;DHT22;2007;48.750;9.278;2023-08-12T01:30:24;23.40;52.20
3986;DHT22;2007;48.750;9.278;2023-08-12T01:32:55;23.40;52.20
3986;DHT22;2007;48.750;9.278;2023-08-12T01:35:30;23.40;52.20
3986;DHT22;2007;48.750;9.278;2023-08-12T01:38:04;23.40;52.20
3986;DHT22;2007;48.750;9.278;2023-08-12T01:40:35;23.40;52.20
3986;DHT22;2007;48.750;9.278;2023-08-12T01:43:04;23.40;52.30
3986;DHT22;2007;48.750;9.278;2023-08-12T01:45:34;23.50;52.30
3986;DHT22;2007;48.750;9.278;2023-08-12T01:48:02;23.40;52.30
3986;DHT22;2007;48.750;9.278;2023-08-12T01:50:30;23.40;52.20
3986;DHT22;2007;48.750;9.278;2023-08-12T01:52:58;23.40;52.20
3986;DHT22;2007;48.750;9.278;2023-08-12T01:55:26;23.40;52.90
3986;DHT22;2007;48.750;9.278;2023-08-12T01:57:56;23.40;52.30
3986;DHT22;2007;48.750;9.278;2023-08-12T02:00:24;23.40;52.20
3986;DHT22;2007;48.750;9.278;2023-08-12T02:02:52;23.40;52.20
3986;DHT22;2007;48.750;9.278;2023-08-12T02:05:20;23.40;52.30
3986;DHT22;2007;48.750;9.278;2023-08-12T02:07:48;23.40;52.20
3986;DHT22;2007;48.750;9.278;2023-08-12T02:10:16;23.40;52.30
3986;DHT22;2007;48.750;9.278;2023-08-12T02:12:44;23.50;52.40
3986;DHT22;2007;48.750;9.278;2023-08-12T02:15:13;23.50;52.40
3986;DHT22;2007;48.750;9.278;2023-08-12T02:17:41;23.40;52.30
3986;DHT22;2007;48.750;9.278;2023-08-12T02:20:10;23.50;52.30
3986;DHT22;2007;48.750;9.278;2023-08-12T02:22:38;23.50;52.30
3986;DHT22;2007;48.750;9.278;2023-08-12T02:25:07;23.50;52.30
3986;DHT22;2007;48.750;9.278;2023-08-12T02:27:35;23.50;52.30
3986;DHT22;2007;48.750;9.278;2023-08-12T02:30:04;23.50;52.30
3986;DHT22;2007;48.750;9.278;2023-08-12T02:32:34;23.50;52.30
3986;DHT22;2007;48.750;9.278;2023-08-12T02:35:02;23.50;52.30
3986;DHT22;2007;48.750;9.278;2023-08-12T02:37:30;23.50;52.30
3986;DHT22;2007;48.750;9.278;2023-08-12T02:39:58;23.50;52.30
3986;DHT22;2007;48.750;9.278;2023-08-12T02:42:26;23.50;52.40
3986;DHT22;2007;48.750;9.278;2023-08-12T02:44:53;23.50;52.30
3986;DHT22;2007;48.750;9.278;2023-08-12T02:47:22;23.50;52.30
3986;DHT22;2007;48.750;9.278;2023-08-12T02:49:52;23.50;52.30
3986;DHT22;2007;48.750;9.278;2023-08-12T02:52:20;23.50;52.40
3986;DHT22;2007;48.750;9.278;2023-08-12T02:54:48;23.50;52.30
3986;DHT22;2007;48.750;9.278;2023-08-12T02:57:15;23.50;52.40
3986;DHT22;2007;48.750;9.278;2023-08-12T02:59:43;23.50;52.30
3986;DHT22;2007;48.750;9.278;2023-08-12T03:02:12;23.50;52.30
3986;DHT22;2007;48.750;9.278;2023-08-12T03:04:39;23.50;52.40
3986;DHT22;2007;48.750;9.278;2023-08-12T03:07:09;23.50;52.30
3986;DHT22;2007;48.750;9.278;2023-08-12T03:09:37;23.50;52.30
3986;DHT22;2007;48.750;9.278;2023-08-12T03:12:06;23.50;52.30
3986;DHT22;2007;48.750;9.278;2023-08-12T03:14:34;23.50;52.30
3986;DHT22;2007;48.750;9.278;2023-08-12T03:17:02;23.50;52.30
3986;DHT22;2007;48.750;9.278;2023-08-12T03:19:30;23.50;52.30
3986;DHT22;2007;48.750;9.278;2023-08-12T03:21:58;23.50;52.30
3986;DHT22;2007;48.750;9.278;2023-08-12T03:24:27;23.50;52.40
3986;DHT22;2007;48.750;9.278;2023-08-12T03:26:55;23.50;52.30
3986;DHT22;2007;48.750;9.278;2023-08-12T03:29:23;23.50;52.30
3986;DHT22;2007;48.750;9.278;2023-08-12T03:31:51;23.50;52.30
3986;DHT22;2007;48.750;9.278;2023-08-12T03:34:19;23.50;52.30
3986;DHT22;2007;48.750;9.278;2023-08-12T03:36:47;23.50;52.30
3986;DHT22;2007;48.750;9.278;2023-08-12T03:39:15;23.50;53.00
3986;DHT22;2007;48.750;9.278;2023-08-12T03:41:44;23.50;52.40
3986;DHT22;2007;48.750;9.278;2023-08-12T03:44:12;23.50;52.30
3986;DHT22;2007;48.750;9.278;2023-08-12T03:46:40;23.50;52.40
3986;DHT22;2007;48.750;9.278;2023-08-12T03:49:08;23.50;52.40
3986;DHT22;2007;48.750;9.278;2023-08-12T03:51:37;23.50;52.40
3986;DHT22;2007;48.750;9.278;2023-08-12T03:54:05;23.50;52.40
3986;DHT22;2007;48.750;9.278;2023-08-12T03:56:33;23.50;52.40
3986;DHT22;2007;48.750;9.278;2023-08-12T03:59:02;23.50;52.40
3986;DHT22;2007;48.750;9.278;2023-08-12T04:01:30;23.50;52.40
3986;DHT22;2007;48.750;9.278;2023-08-12T04:03:58;23.50;52.40
3986;DHT22;2007;48.750;9.278;2023-08-12T04:06:29;23.50;52.40
3986;DHT22;2007;48.750;9.278;2023-08-12T04:08:57;23.50;52.40
3986;DHT22;2007;48.750;9.278;2023-08-12T04:11:25;23.50;52.40
3986;DHT22;2007;48.750;9.278;2023-08-12T04:13:53;23.50;52.40
3986;DHT22;2007;48.750;9.278;2023-08-12T04:16:23;23.50;52.40
3986;DHT22;2007;48.750;9.278;2023-08-12T04:18:51;23.50;52.40
3986;DHT22;2007;48.750;9.278;2023-08-12T04:21:18;23.50;52.40
3986;DHT22;2007;48.750;9.278;2023-08-12T04:23:47;23.50;52.40
3986;DHT22;2007;48.750;9.278;2023-08-12T04:26:14;23.50;52.40
3986;DHT22;2007;48.750;9.278;2023-08-12T04:28:43;23.50;52.40
3986;DHT22;2007;48.750;9.278;2023-08-12T04:31:11;23.50;52.40
3986;DHT22;2007;48.750;9.278;2023-08-12T04:33:40;23.50;52.40
3986;DHT22;2007;48.750;9.278;2023-08-12T04:36:08;23.50;52.40
3986;DHT22;2007;48.750;9.278;2023-08-12T04:38:36;23.50;52.40
3986;DHT22;2007;48.750;9.278;2023-08-12T04:41:04;23.50;52.40
3986;DHT22;2007;48.750;9.278;2023-08-12T04:43:32;23.50;52.40
3986;DHT22;2007;48.750;9.278;2023-08-12T04:46:00;23.50;52.40
3986;DHT22;2007;48.750;9.278;2023-08-12T04:48:28;23.50;52.40
3986;DHT22;2007;48.750;9.278;2023-08-12T04:50:58;23.50;52.40
3986;DHT22;2007;48.750;9.278;2023-08-12T04:53:28;23.50;52.40
3986;DHT22;2007;48.750;9.278;2023-08-12T04:55:56;23.50;52.40
3986;DHT22;2007;48.750;9.278;2023-08-12T04:58:24;23.50;52.40
3986;DHT22;2007;48.750;9.278;2023-08-12T05:00:52;23.50;52.40
3986;DHT22;2007;48.750;9.278;2023-08-12T05:03:20;23.50;52.40
3986;DHT22;2007;48.750;9.278;2023-08-12T05:05:49;23.50;52.40
3986;DHT22;2007;48.750;9.278;2023-08-12T05:08:19;23.50;52.40
3986;DHT22;2007;48.750;9.278;2023-08-12T05:10:47;23.50;52.40
3986;DHT22;2007;48.750;9.278;2023-08-12T05:13:16;23.50;52.40
3986;DHT22;2007;48.750;9.278;2023-08-12T05:15:45;23.50;52.40
3986;DHT22;2007;48.750;9.278;2023-08-12T05:18:14;23.50;52.40
3986;DHT22;2007;48.750;9.278;2023-08-12T05:20:42;23.50;52.40
3986;DHT22;2007;48.750;9.278;2023-08-12T05:23:13;23.50;52.40
3986;DHT22;2007;48.750;9.278;2023-08-12T05:25:42;23.50;52.50
3986;DHT22;2007;48.750;9.278;2023-08-12T05:28:10;23.50;52.40
3986;DHT22;2007;48.750;9.278;2023-08-12T05:30:38;23.50;52.40
3986;DHT22;2007;48.750;9.278;2023-08-12T05:33:06;23.50;52.40
3986;DHT22;2007;48.750;9.278;2023-08-12T05:35:35;23.50;52.40
3986;DHT22;2007;48.750;9.278;2023-08-12T05:38:03;23.50;52.40
3986;DHT22;2007;48.750;9.278;2023-08-12T05:40:31;23.50;52.40
3986;DHT22;2007;48.750;9.278;2023-08-12T05:43:00;23.50;52.40
3986;DHT22;2007;48.750;9.278;2023-08-12T05:45:29;23.50;52.40
3986;DHT22;2007;48.750;9.278;2023-08-12T05:47:57;23.50;52.40
3986;DHT22;2007;48.750;9.278;2023-08-12T05:50:25;23.50;52.40
3986;DHT22;2007;48.750;9.278;2023-08-12T05:52:53;23.50;52.50
3986;DHT22;2007;48.750;9.278;2023-08-12T05:55:21;23.50;52.40
3986;DHT22;2007;48.750;9.278;2023-08-12T05:57:49;23.50;52.40
3986;DHT22;2007;48.750;9.278;2023-08-12T06:00:18;23.50;52.50
3986;DHT22;2007;48.750;9.278;2023-08-12T06:02:46;23.50;52.50
3986;DHT22;2007;48.750;9.278;2023-08-12T06:05:18;23.50;52.50
3986;DHT22;2007;48.750;9.278;2023-08-12T06:07:46;23.50;52.50
3986;DHT22;2007;48.750;9.278;2023-08-12T06:10:14;23.50;52.50
3986;DHT22;2007;48.750;9.278;2023-08-12T06:12:42;23.50;52.50
3986;DHT22;2007;48.750;9.278;2023-08-12T06:15:10;23.50;52.50
3986;DHT22;2007;48.750;9.278;2023-08-12T06:17:40;23.50;53.10
3986;DHT22;2007;48.750;9.278;2023-08-12T06:20:08;23.50;52.50
3986;DHT22;2007;48.750;9.278;2023-08-12T06:22:36;23.50;52.50
3986;DHT22;2007;48.750;9.278;2023-08-12T06:25:05;23.50;52.50
3986;DHT22;2007;48.750;9.278;2023-08-12T06:27:33;23.50;52.50
3986;DHT22;2007;48.750;9.278;2023-08-12T06:30:01;23.50;52.50
3986;DHT22;2007;48.750;9.278;2023-08-12T06:32:29;23.50;52.50
3986;DHT22;2007;48.750;9.278;2023-08-12T06:34:58;23.50;52.50
3986;DHT22;2007;48.750;9.278;2023-08-12T06:37:26;23.50;52.50
3986;DHT22;2007;48.750;9.278;2023-08-12T06:39:54;23.50;52.60
3986;DHT22;2007;48.750;9.278;2023-08-12T06:42:22;23.50;52.50
3986;DHT22;2007;48.750;9.278;2023-08-12T06:44:55;23.50;52.50
3986;DHT22;2007;48.750;9.278;2023-08-12T06:47:23;23.50;52.50
3986;DHT22;2007;48.750;9.278;2023-08-12T06:49:52;23.50;52.50
3986;DHT22;2007;48.750;9.278;2023-08-12T06:52:22;23.50;52.60
3986;DHT22;2007;48.750;9.278;2023-08-12T06:54:50;23.50;52.50
3986;DHT22;2007;48.750;9.278;2023-08-12T06:57:18;23.50;52.50
3986;DHT22;2007;48.750;9.278;2023-08-12T06:59:46;23.50;52.50
3986;DHT22;2007;48.750;9.278;2023-08-12T07:02:14;23.50;52.50
3986;DHT22;2007;48.750;9.278;2023-08-12T07:04:42;23.50;52.60
3986;DHT22;2007;48.750;9.278;2023-08-12T07:07:10;23.50;52.50
3986;DHT22;2007;48.750;9.278;2023-08-12T07:09:39;23.50;52.50
3986;DHT22;2007;48.750;9.278;2023-08-12T07:12:07;23.50;52.50
3986;DHT22;2007;48.750;9.278;2023-08-12T07:14:37;23.50;52.60
3986;DHT22;2007;48.750;9.278;2023-08-12T07:17:04;23.50;52.50
3986;DHT22;2007;48.750;9.278;2023-08-12T07:19:32;23.50;52.50
3986;DHT22;2007;48.750;9.278;2023-08-12T07:22:00;23.50;52.50
3986;DHT22;2007;48.750;9.278;2023-08-12T07:24:28;23.50;52.50
3986;DHT22;2007;48.750;9.278;2023-08-12T07:26:57;23.50;52.60
3986;DHT22;2007;48.750;9.278;2023-08-12T07:29:25;23.50;52.60
3986;DHT22;2007;48.750;9.278;2023-08-12T07:31:53;23.50;52.60
3986;DHT22;2007;48.750;9.278;2023-08-12T07:34:21;23.50;52.60
3986;DHT22;2007;48.750;9.278;2023-08-12T07:36:49;23.50;52.60
3986;DHT22;2007;48.750;9.278;2023-08-12T07:39:17;23.50;52.60
3986;DHT22;2007;48.750;9.278;2023-08-12T07:41:45;23.50;52.60
3986;DHT22;2007;48.750;9.278;2023-08-12T07:44:14;23.50;52.60
3986;DHT22;2007;48.750;9.278;2023-08-12T07:46:42;23.50;52.50
3986;DHT22;2007;48.750;9.278;2023-08-12T07:49:10;23.50;52.60
3986;DHT22;2007;48.750;9.278;2023-08-12T07:51:38;23.50;52.60
3986;DHT22;2007;48.750;9.278;2023-08-12T07:54:06;23.50;52.60
3986;DHT22;2007;48.750;9.278;2023-08-12T07:56:34;23.50;52.60
3986;DHT22;2007;48.750;9.278;2023-08-12T07:59:02;23.50;52.60
3986;DHT22;2007;48.750;9.278;2023-08-12T08:01:32;23.50;52.50
3986;DHT22;2007;48.750;9.278;2023-08-12T08:04:04;23.50;52.50
3986;DHT22;2007;48.750;9.278;2023-08-12T08:06:32;23.50;52.50
3986;DHT22;2007;48.750;9.278;2023-08-12T08:09:00;23.50;52.50
3986;DHT22;2007;48.750;9.278;2023-08-12T08:11:31;23.50;52.60
3986;DHT22;2007;48.750;9.278;2023-08-12T08:13:59;23.50;52.50
3986;DHT22;2007;48.750;9.278;2023-08-12T08:16:27;23.50;52.50
3986;DHT22;2007;48.750;9.278;2023-08-12T08:18:56;23.50;52.50
3986;DHT22;2007;48.750;9.278;2023-08-12T08:21:25;23.50;52.60
3986;DHT22;2007;48.750;9.278;2023-08-12T08:23:53;23.50;52.50
3986;DHT22;2007;48.750;9.278;2023-08-12T08:26:21;23.50;52.50
3986;DHT22;2007;48.750;9.278;2023-08-12T08:28:49;23.50;52.50
3986;DHT22;2007;48.750;9.278;2023-08-12T08:31:17;23.50;52.60
3986;DHT22;2007;48.750;9.278;2023-08-12T08:33:46;23.50;52.50
3986;DHT22;2007;48.750;9.278;2023-08-12T08:36:15;23.50;52.50
3986;DHT22;2007;48.750;9.278;2023-08-12T08:38:45;23.50;52.60
3986;DHT22;2007;48.750;9.278;2023-08-12T08:41:13;23.50;52.50
3986;DHT22;2007;48.750;9.278;2023-08-12T08:43:43;23.50;52.50
3986;DHT22;2007;48.750;9.278;2023-08-12T08:46:14;23.50;52.50
3986;DHT22;2007;48.750;9.278;2023-08-12T08:48:43;23.50;52.50
3986;DHT22;2007;48.750;9.278;2023-08-12T08:51:11;23.50;52.50
3986;DHT22;2007;48.750;9.278;2023-08-12T08:53:41;23.50;52.50
3986;DHT22;2007;48.750;9.278;2023-08-12T08:56:11;23.50;52.60
3986;DHT22;2007;48.750;9.278;2023-08-12T08:58:41;23.50;52.50
3986;DHT22;2007;48.750;9.278;2023-08-12T09:01:09;23.50;52.50
3986;DHT22;2007;48.750;9.278;2023-08-12T09:03:39;23.50;52.60
3986;DHT22;2007;48.750;9.278;2023-08-12T09:06:08;23.50;52.50
3986;DHT22;2007;48.750;9.278;2023-08-12T09:08:36;23.60;52.70
3986;DHT22;2007;48.750;9.278;2023-08-12T09:11:07;23.50;52.50
3986;DHT22;2007;48.750;9.278;2023-08-12T09:13:35;23.60;53.30
3986;DHT22;2007;48.750;9.278;2023-08-12T09:16:03;23.60;52.70
3986;DHT22;2007;48.750;9.278;2023-08-12T09:18:32;23.50;52.60
3986;DHT22;2007;48.750;9.278;2023-08-12T09:21:00;23.60;52.70
3986;DHT22;2007;48.750;9.278;2023-08-12T09:23:28;23.60;52.60
3986;DHT22;2007;48.750;9.278;2023-08-12T09:26:01;23.50;52.60
3986;DHT22;2007;48.750;9.278;2023-08-12T09:28:32;23.60;52.70
3986;DHT22;2007;48.750;9.278;2023-08-12T09:31:00;23.60;52.70
3986;DHT22;2007;48.750;9.278;2023-08-12T09:33:28;23.60;52.60
3986;DHT22;2007;48.750;9.278;2023-08-12T09:35:56;23.60;52.70
3986;DHT22;2007;48.750;9.278;2023-08-12T09:38:24;23.60;52.60
3986;DHT22;2007;48.750;9.278;2023-08-12T09:40:53;23.60;52.60
3986;DHT22;2007;48.750;9.278;2023-08-12T09:43:23;23.60;52.60
3986;DHT22;2007;48.750;9.278;2023-08-12T09:45:55;23.60;52.60
3986;DHT22;2007;48.750;9.278;2023-08-12T09:48:24;23.60;52.60
3986;DHT22;2007;48.750;9.278;2023-08-12T09:50:52;23.60;52.60
3986;DHT22;2007;48.750;9.278;2023-08-12T09:53:22;23.60;52.60
3986;DHT22;2007;48.750;9.278;2023-08-12T09:55:52;23.60;52.60
3986;DHT22;2007;48.750;9.278;2023-08-12T09:58:23;23.60;53.20
3986;DHT22;2007;48.750;9.278;2023-08-12T10:00:53;23.60;52.60
3986;DHT22;2007;48.750;9.278;2023-08-12T10:03:23;23.60;52.60
3986;DHT22;2007;48.750;9.278;2023-08-12T10:05:52;23.60;52.60
3986;DHT22;2007;48.750;9.278;2023-08-12T10:08:20;23.60;52.60
3986;DHT22;2007;48.750;9.278;2023-08-12T10:10:48;23.60;52.60
3986;DHT22;2007;48.750;9.278;2023-08-12T10:13:36;23.60;52.60
3986;DHT22;2007;48.750;9.278;2023-08-12T10:16:06;23.60;52.60
3986;DHT22;2007;48.750;9.278;2023-08-12T10:18:36;23.60;52.60
3986;DHT22;2007;48.750;9.278;2023-08-12T10:21:09;23.60;52.60
3986;DHT22;2007;48.750;9.278;2023-08-12T10:23:37;23.60;52.60
3986;DHT22;2007;48.750;9.278;2023-08-12T10:26:06;23.60;52.60
3986;DHT22;2007;48.750;9.278;2023-08-12T10:28:34;23.60;52.60
3986;DHT22;2007;48.750;9.278;2023-08-12T10:31:06;23.60;52.60
3986;DHT22;2007;48.750;9.278;2023-08-12T10:33:38;23.60;52.60
3986;DHT22;2007;48.750;9.278;2023-08-12T10:36:06;23.60;52.60
3986;DHT22;2007;48.750;9.278;2023-08-12T10:38:35;23.60;52.60
3986;DHT22;2007;48.750;9.278;2023-08-12T10:41:19;23.60;52.70
3986;DHT22;2007;48.750;9.278;2023-08-12T10:43:54;23.60;52.60
3986;DHT22;2007;48.750;9.278;2023-08-12T10:46:30;23.60;52.60
3986;DHT22;2007;48.750;9.278;2023-08-12T10:49:02;23.60;52.60
3986;DHT22;2007;48.750;9.278;2023-08-12T10:51:44;23.60;52.60
3986;DHT22;2007;48.750;9.278;2023-08-12T10:54:16;23.60;52.60
3986;DHT22;2007;48.750;9.278;2023-08-12T10:57:06;23.60;52.60
3986;DHT22;2007;48.750;9.278;2023-08-12T10:59:57;23.60;52.60
3986;DHT22;2007;48.750;9.278;2023-08-12T11:02:31;23.60;52.60
3986;DHT22;2007;48.750;9.278;2023-08-12T11:05:01;23.60;52.60
3986;DHT22;2007;48.750;9.278;2023-08-12T11:07:34;23.60;52.70
3986;DHT22;2007;48.750;9.278;2023-08-12T11:10:09;23.60;52.60
3986;DHT22;2007;48.750;9.278;2023-08-12T11:12:38;23.60;52.60
3986;DHT22;2007;48.750;9.278;2023-08-12T11:15:07;23.60;52.60
3986;DHT22;2007;48.750;9.278;2023-08-12T11:17:37;23.60;52.60
3986;DHT22;2007;48.750;9.278;2023-08-12T11:20:08;23.60;52.60
3986;DHT22;2007;48.750;9.278;2023-08-12T11:22:37;23.60;52.60
3986;DHT22;2007;48.750;9.278;2023-08-12T11:25:07;23.60;52.70
3986;DHT22;2007;48.750;9.278;2023-08-12T11:27:40;23.60;52.60
3986;DHT22;2007;48.750;9.278;2023-08-12T11:30:09;23.60;52.60
3986;DHT22;2007;48.750;9.278;2023-08-12T11:32:40;23.60;52.60
3986;DHT22;2007;48.750;9.278;2023-08-12T11:35:09;23.60;52.60
3986;DHT22;2007;48.750;9.278;2023-08-12T11:37:39;23.60;52.60
3986;DHT22;2007;48.750;9.278;2023-08-12T11:40:09;23.60;52.60
3986;DHT22;2007;48.750;9.278;2023-08-12T11:42:38;23.60;52.70
3986;DHT22;2007;48.750;9.278;2023-08-12T11:45:08;23.60;52.70
3986;DHT22;2007;48.750;9.278;2023-08-12T11:47:37;23.60;52.60
3986;DHT22;2007;48.750;9.278;2023-08-12T11:50:08;23.60;52.70
3986;DHT22;2007;48.750;9.278;2023-08-12T11:52:37;23.60;52.70
3986;DHT22;2007;48.750;9.278;2023-08-12T11:55:06;23.60;52.70
3986;DHT22;2007;48.750;9.278;2023-08-12T11:57:35;23.60;52.70
3986;DHT22;2007;48.750;9.278;2023-08-12T12:00:05;23.60;52.70
3986;DHT22;2007;48.750;9.278;2023-08-12T12:02:48;23.60;52.70
3986;DHT22;2007;48.750;9.278;2023-08-12T12:05:18;23.60;52.70
3986;DHT22;2007;48.750;9.278;2023-08-12T12:07:50;23.60;52.80
3986;DHT22;2007;48.750;9.278;2023-08-12T12:10:20;23.70;52.80
3986;DHT22;2007;48.750;9.278;2023-08-12T12:12:48;23.60;52.80
3986;DHT22;2007;48.750;9.278;2023-08-12T12:15:16;23.60;52.70
3986;DHT22;2007;48.750;9.278;2023-08-12T12:17:45;23.70;52.80
3986;DHT22;2007;48.750;9.278;2023-08-12T12:20:13;23.70;52.80
3986;DHT22;2007;48.750;9.278;2023-08-12T12:22:44;23.60;52.80
3986;DHT22;2007;48.750;9.278;2023-08-12T12:25:14;23.70;52.80
3986;DHT22;2007;48.750;9.278;2023-08-12T12:27:43;23.70;52.90
3986;DHT22;2007;48.750;9.278;2023-08-12T12:30:13;23.70;52.80
3986;DHT22;2007;48.750;9.278;2023-08-12T12:32:42;23.70;52.80
3986;DHT22;2007;48.750;9.278;2023-08-12T12:35:10;23.70;52.80
3986;DHT22;2007;48.750;9.278;2023-08-12T12:37:38;23.70;52.90
3986;DHT22;2007;48.750;9.278;2023-08-12T12:40:09;23.70;52.80
3986;DHT22;2007;48.750;9.278;2023-08-12T12:42:37;23.70;52.90
3986;DHT22;2007;48.750;9.278;2023-08-12T12:45:06;23.70;52.90
3986;DHT22;2007;48.750;9.278;2023-08-12T12:47:34;23.70;52.80
3986;DHT22;2007;48.750;9.278;2023-08-12T12:50:02;23.70;52.90
3986;DHT22;2007;48.750;9.278;2023-08-12T12:52:30;23.70;52.80
3986;DHT22;2007;48.750;9.278;2023-08-12T12:54:58;23.70;52.90
3986;DHT22;2007;48.750;9.278;2023-08-12T12:57:28;23.70;53.00
3986;DHT22;2007;48.750;9.278;2023-08-12T12:59:56;23.70;53.00
3986;DHT22;2007;48.750;9.278;2023-08-12T13:02:24;23.70;53.00
3986;DHT22;2007;48.750;9.278;2023-08-12T13:04:52;23.70;53.00
3986;DHT22;2007;48.750;9.278;2023-08-12T13:07:20;23.70;53.00
3986;DHT22;2007;48.750;9.278;2023-08-12T13:09:48;23.70;53.00
3986;DHT22;2007;48.750;9.278;2023-08-12T13:12:16;23.70;53.00
3986;DHT22;2007;48.750;9.278;2023-08-12T13:14:45;23.70;53.00
3986;DHT22;2007;48.750;9.278;2023-08-12T13:17:13;23.70;53.00
3986;DHT22;2007;48.750;9.278;2023-08-12T13:19:41;23.70;53.00
3986;DHT22;2007;48.750;9.278;2023-08-12T13:22:09;23.70;53.00
3986;DHT22;2007;48.750;9.278;2023-08-12T13:24:37;23.70;53.00
3986;DHT22;2007;48.750;9.278;2023-08-12T13:27:06;23.70;53.00
3986;DHT22;2007;48.750;9.278;2023-08-12T13:29:34;23.70;53.00
3986;DHT22;2007;48.750;9.278;2023-08-12T13:32:04;23.70;53.00
3986;DHT22;2007;48.750;9.278;2023-08-12T13:34:32;23.70;53.00
3986;DHT22;2007;48.750;9.278;2023-08-12T13:37:00;23.70;53.00
3986;DHT22;2007;48.750;9.278;2023-08-12T13:39:28;23.70;53.00
3986;DHT22;2007;48.750;9.278;2023-08-12T13:41:56;23.70;53.00
3986;DHT22;2007;48.750;9.278;2023-08-12T13:44:24;23.70;53.00
3986;DHT22;2007;48.750;9.278;2023-08-12T13:46:52;23.70;53.00
3986;DHT22;2007;48.750;9.278;2023-08-12T13:49:21;23.70;53.00
3986;DHT22;2007;48.750;9.278;2023-08-12T13:51:49;23.70;53.00
3986;DHT22;2007;48.750;9.278;2023-08-12T13:54:17;23.70;53.00
3986;DHT22;2007;48.750;9.278;2023-08-12T13:56:45;23.70;53.00
3986;DHT22;2007;48.750;9.278;2023-08-12T13:59:13;23.70;53.00
3986;DHT22;2007;48.750;9.278;2023-08-12T14:01:41;23.70;53.00
3986;DHT22;2007;48.750;9.278;2023-08-12T14:04:09;23.70;53.60
3986;DHT22;2007;48.750;9.278;2023-08-12T14:06:39;23.70;53.00
3986;DHT22;2007;48.750;9.278;2023-08-12T14:09:07;23.70;52.90
3986;DHT22;2007;48.750;9.278;2023-08-12T14:11:35;23.70;53.00
3986;DHT22;2007;48.750;9.278;2023-08-12T14:14:03;23.70;53.60
3986;DHT22;2007;48.750;9.278;2023-08-12T14:16:33;23.70;52.90
3986;DHT22;2007;48.750;9.278;2023-08-12T14:19:01;23.80;53.00
3986;DHT22;2007;48.750;9.278;2023-08-12T14:21:29;23.80;53.70
3986;DHT22;2007;48.750;9.278;2023-08-12T14:23:59;23.80;53.00
3986;DHT22;2007;48.750;9.278;2023-08-12T14:26:27;23.80;53.10
3986;DHT22;2007;48.750;9.278;2023-08-12T14:28:54;23.80;53.00
3986;DHT22;2007;48.750;9.278;2023-08-12T14:31:22;23.80;53.00
3986;DHT22;2007;48.750;9.278;2023-08-12T14:33:51;23.80;53.00
3986;DHT22;2007;48.750;9.278;2023-08-12T14:36:19;23.80;53.00
3986;DHT22;2007;48.750;9.278;2023-08-12T14:38:47;23.80;53.00
3986;DHT22;2007;48.750;9.278;2023-08-12T14:41:16;23.80;53.00
3986;DHT22;2007;48.750;9.278;2023-08-12T14:43:44;23.80;53.00
3986;DHT22;2007;48.750;9.278;2023-08-12T14:46:12;23.80;53.00
3986;DHT22;2007;48.750;9.278;2023-08-12T14:48:40;23.80;53.00
3986;DHT22;2007;48.750;9.278;2023-08-12T14:51:08;23.80;53.00
3986;DHT22;2007;48.750;9.278;2023-08-12T14:53:36;23.80;53.00
3986;DHT22;2007;48.750;9.278;2023-08-12T14:56:04;23.80;53.00
3986;DHT22;2007;48.750;9.278;2023-08-12T14:58:33;23.80;53.00
3986;DHT22;2007;48.750;9.278;2023-08-12T15:01:02;23.80;53.00
3986;DHT22;2007;48.750;9.278;2023-08-12T15:03:30;23.80;53.00
3986;DHT22;2007;48.750;9.278;2023-08-12T15:05:59;23.80;53.00
3986;DHT22;2007;48.750;9.278;2023-08-12T15:08:28;23.80;53.00
3986;DHT22;2007;48.750;9.278;2023-08-12T15:10:56;23.90;53.10
3986;DHT22;2007;48.750;9.278;2023-08-12T15:13:24;23.90;53.20
3986;DHT22;2007;48.750;9.278;2023-08-12T15:15:54;23.80;53.00
3986;DHT22;2007;48.750;9.278;2023-08-12T15:18:22;23.90;53.10
3986;DHT22;2007;48.750;9.278;2023-08-12T15:20:51;23.90;53.10
3986;DHT22;2007;48.750;9.278;2023-08-12T15:23:18;23.90;53.10
3986;DHT22;2007;48.750;9.278;2023-08-12T15:25:46;23.90;53.80
3986;DHT22;2007;48.750;9.278;2023-08-12T15:28:14;23.90;53.20
3986;DHT22;2007;48.750;9.278;2023-08-12T15:30:42;23.90;53.10
3986;DHT22;2007;48.750;9.278;2023-08-12T15:33:12;23.90;53.10
3986;DHT22;2007;48.750;9.278;2023-08-12T15:35:40;23.90;53.10
3986;DHT22;2007;48.750;9.278;2023-08-12T15:38:08;23.90;53.10
3986;DHT22;2007;48.750;9.278;2023-08-12T15:40:37;23.90;53.10
3986;DHT22;2007;48.750;9.278;2023-08-12T15:43:05;23.90;53.10
3986;DHT22;2007;48.750;9.278;2023-08-12T15:45:33;23.90;53.10
3986;DHT22;2007;48.750;9.278;2023-08-12T15:48:04;23.90;53.10
3986;DHT22;2007;48.750;9.278;2023-08-12T15:50:34;23.90;53.10
3986;DHT22;2007;48.750;9.278;2023-08-12T15:53:02;23.90;53.10
3986;DHT22;2007;48.750;9.278;2023-08-12T15:55:30;23.90;53.10
3986;DHT22;2007;48.750;9.278;2023-08-12T15:57:58;23.90;53.10
3986;DHT22;2007;48.750;9.278;2023-08-12T16:00:26;23.90;53.10
3986;DHT22;2007;48.750;9.278;2023-08-12T16:02:54;23.90;53.10
3986;DHT22;2007;48.750;9.278;2023-08-12T16:05:22;23.90;53.10
3986;DHT22;2007;48.750;9.278;2023-08-12T16:07:51;23.90;53.10
3986;DHT22;2007;48.750;9.278;2023-08-12T16:10:19;23.90;53.10
3986;DHT22;2007;48.750;9.278;2023-08-12T16:12:47;23.90;53.10